Time;durP1;ratioP1;P1;durP2;ratioP2;P2;SDS_P1;SDS_P2;PMS_P1;PMS_P2;Temp;Humidity;BMP_temperature;BMP_pressure;BME280_temperature;BME280_humidity;BME280_pressure;Samples;Min_cycle;Max_cycle;Signal;HPM_P1;HPM_P2
2024/04/23 00:01:55;;;;;;;5.23;4.70;;;5.50;49.00;;;;;;5318085;26;20242;-67
2024/04/23 00:04:20;;;;;;;5.07;4.57;;;5.50;49.20;;;;;;5330421;26;20394;-67
2024/04/23 00:06:48;;;;;;;5.27;4.87;;;5.40;50.20;;;;;;5317092;26;20749;-68
2024/04/23 00:09:14;;;;;;;4.73;4.33;;;5.40;50.40;;;;;;5329397;26;20286;-67
2024/04/23 00:11:42;;;;;;;5.13;4.67;;;5.40;50.20;;;;;;5327815;26;20242;-68
2024/04/23 00:14:08;;;;;;;6.00;5.40;;;5.50;50.20;;;;;;5307187;26;20377;-67
2024/04/23 00:16:36;;;;;;;5.17;4.67;;;5.40;50.30;;;;;;5315327;26;20250;-67
2024/04/23 00:19:02;;;;;;;5.27;4.77;;;5.50;50.70;;;;;;5325177;26;20298;-68
2024/04/23 00:21:30;;;;;;;5.90;5.23;;;5.50;50.40;;;;;;5332354;26;20585;-67
2024/04/23 00:23:56;;;;;;;5.13;4.73;;;5.50;50.30;;;;;;5321983;26;20296;-67
2024/04/23 00:26:24;;;;;;;5.60;5.00;;;5.40;50.20;;;;;;5301369;26;20343;-67
2024/04/23 00:28:51;;;;;;;4.77;4.37;;;5.50;50.20;;;;;;5303017;26;20247;-67
2024/04/23 00:31:20;;;;;;;5.30;4.80;;;5.50;50.50;;;;;;5310114;26;20344;-67
2024/04/23 00:33:45;;;;;;;5.17;4.67;;;5.50;50.00;;;;;;5332331;26;20267;-67
2024/04/23 00:36:13;;;;;;;5.00;4.57;;;5.40;50.40;;;;;;5329243;26;20238;-67
2024/04/23 00:38:39;;;;;;;5.00;4.60;;;5.50;50.40;;;;;;5326431;26;20295;-67
2024/04/23 00:41:07;;;;;;;6.00;5.37;;;5.30;50.10;;;;;;5312045;26;20241;-67
2024/04/23 00:43:33;;;;;;;5.60;5.10;;;5.40;50.10;;;;;;5328146;26;20372;-67
2024/04/23 00:46:04;;;;;;;5.73;5.13;;;5.50;49.10;;;;;;5309411;26;20736;-67
2024/04/23 00:48:29;;;;;;;5.47;4.83;;;5.50;48.60;;;;;;5310312;26;20287;-67
2024/04/23 00:50:57;;;;;;;5.23;4.73;;;5.50;48.40;;;;;;5313973;26;20342;-68
2024/04/23 00:53:23;;;;;;;5.00;4.60;;;5.50;48.60;;;;;;5319865;26;20314;-67
2024/04/23 00:55:51;;;;;;;5.40;4.90;;;5.50;49.10;;;;;;5326297;26;20270;-67
2024/04/23 00:58:17;;;;;;;5.63;5.10;;;5.50;48.70;;;;;;5325665;26;20245;-67
2024/04/23 01:00:45;;;;;;;5.50;5.00;;;5.50;49.00;;;;;;5325608;26;20337;-67
2024/04/23 01:03:11;;;;;;;4.97;4.57;;;5.40;48.60;;;;;;5316798;26;20268;-68
2024/04/23 01:05:39;;;;;;;6.93;5.47;;;5.40;49.10;;;;;;5314875;26;20325;-66
2024/04/23 01:08:04;;;;;;;6.20;5.60;;;5.10;48.90;;;;;;5325443;26;20356;-67
2024/04/23 01:10:33;;;;;;;5.63;5.13;;;5.00;49.90;;;;;;5312394;26;20248;-67
2024/04/23 01:12:58;;;;;;;6.23;5.73;;;5.10;49.80;;;;;;5331365;26;20802;-67
2024/04/23 01:15:27;;;;;;;5.97;5.47;;;5.10;50.40;;;;;;5293794;26;20246;-67
2024/04/23 01:17:52;;;;;;;5.73;5.23;;;5.10;50.40;;;;;;5317283;26;20285;-68
2024/04/23 01:20:21;;;;;;;6.17;5.57;;;5.10;50.60;;;;;;5312415;26;20255;-67
2024/04/23 01:22:47;;;;;;;6.37;5.67;;;5.10;51.10;;;;;;5316656;26;20276;-67
2024/04/23 01:25:16;;;;;;;6.00;5.40;;;5.10;51.10;;;;;;5301335;26;20232;-67
2024/04/23 01:27:41;;;;;;;5.63;5.07;;;5.00;51.70;;;;;;5330695;26;20739;-67
2024/04/23 01:30:10;;;;;;;5.97;5.37;;;5.00;51.60;;;;;;5308010;26;20239;-67
2024/04/23 01:32:35;;;;;;;6.30;5.70;;;5.00;51.80;;;;;;5300670;26;20253;-67
2024/04/23 01:35:03;;;;;;;6.67;6.03;;;4.80;52.70;;;;;;5326014;26;20242;-67
2024/04/23 01:37:29;;;;;;;5.90;5.40;;;4.80;52.90;;;;;;5285196;26;20360;-67
2024/04/23 01:39:57;;;;;;;5.73;5.20;;;4.80;53.10;;;;;;5294040;26;20944;-67
2024/04/23 01:42:23;;;;;;;5.90;5.30;;;4.90;53.40;;;;;;5330137;26;20293;-66
2024/04/23 01:44:51;;;;;;;6.40;5.80;;;4.90;53.50;;;;;;5327660;26;20346;-67
2024/04/23 01:47:17;;;;;;;6.30;5.53;;;4.90;53.40;;;;;;5327283;26;20231;-68
2024/04/23 01:49:45;;;;;;;6.80;6.20;;;4.90;54.00;;;;;;5330791;26;20273;-67
2024/04/23 01:52:10;;;;;;;6.23;5.70;;;4.90;54.60;;;;;;5326777;26;20301;-67
2024/04/23 01:54:39;;;;;;;6.73;6.07;;;4.80;54.60;;;;;;5311771;26;20693;-67
2024/04/23 01:57:04;;;;;;;6.77;6.17;;;4.70;55.60;;;;;;5316300;26;20242;-67
2024/04/23 01:59:32;;;;;;;7.23;5.80;;;4.70;55.40;;;;;;5322965;26;20279;-67
2024/04/23 02:01:58;;;;;;;7.23;6.17;;;4.70;55.70;;;;;;5324233;26;20372;-67
2024/04/23 02:04:26;;;;;;;7.00;6.27;;;4.60;55.80;;;;;;5330296;26;20248;-67
2024/04/23 02:06:52;;;;;;;6.60;6.00;;;4.60;56.30;;;;;;5320748;26;20304;-67
2024/04/23 02:09:20;;;;;;;6.37;5.87;;;4.50;55.90;;;;;;5328887;26;20315;-67
2024/04/23 02:11:45;;;;;;;6.57;5.90;;;4.60;55.70;;;;;;5320633;26;20777;-67
2024/04/23 02:14:13;;;;;;;7.77;6.40;;;4.40;56.70;;;;;;5320757;26;20348;-66
2024/04/23 02:16:39;;;;;;;6.63;6.03;;;4.50;56.50;;;;;;5310986;26;20334;-67
2024/04/23 02:19:07;;;;;;;6.37;5.80;;;4.50;56.60;;;;;;5316527;26;20240;-67
2024/04/23 02:21:33;;;;;;;6.80;6.20;;;4.50;56.60;;;;;;5304654;26;20306;-67
2024/04/23 02:24:01;;;;;;;7.37;6.77;;;4.40;56.70;;;;;;5324925;26;20851;-67
2024/04/23 02:26:27;;;;;;;6.73;6.13;;;4.30;57.10;;;;;;5311243;26;20295;-67
2024/04/23 02:28:55;;;;;;;6.83;6.13;;;4.40;56.60;;;;;;5319954;26;20341;-67
2024/04/23 02:31:21;;;;;;;6.47;5.77;;;4.30;57.00;;;;;;5310466;26;20383;-67
2024/04/23 02:33:49;;;;;;;6.40;5.80;;;4.50;57.10;;;;;;5325072;26;20249;-67
2024/04/23 02:36:15;;;;;;;7.20;6.27;;;4.50;56.40;;;;;;5315254;26;20340;-67
2024/04/23 02:38:43;;;;;;;7.30;6.70;;;4.50;57.50;;;;;;5330154;26;20249;-67
2024/04/23 02:41:08;;;;;;;6.53;5.83;;;4.40;56.50;;;;;;5326059;26;20289;-67
2024/04/23 02:43:36;;;;;;;9.87;6.23;;;4.50;56.20;;;;;;5331223;26;20985;-67
2024/04/23 02:46:02;;;;;;;7.00;6.23;;;4.40;56.80;;;;;;5305354;26;20246;-67
2024/04/23 02:48:30;;;;;;;7.37;6.60;;;4.60;56.30;;;;;;5316076;26;20866;-67
2024/04/23 02:50:56;;;;;;;6.60;6.00;;;4.60;55.80;;;;;;5311687;26;20284;-66
2024/04/23 02:53:24;;;;;;;7.37;6.60;;;4.50;55.70;;;;;;5323500;26;20250;-67
2024/04/23 02:55:50;;;;;;;7.57;6.87;;;4.60;54.70;;;;;;5327322;26;20290;-67
2024/04/23 02:58:18;;;;;;;7.37;6.40;;;4.40;55.40;;;;;;5330704;26;20335;-67
2024/04/23 03:00:43;;;;;;;7.23;6.53;;;4.40;55.80;;;;;;5292356;27;20706;-67
2024/04/23 03:03:12;;;;;;;7.57;6.93;;;4.40;55.40;;;;;;5317046;26;20239;-67
2024/04/23 03:05:37;;;;;;;7.40;6.63;;;4.30;55.60;;;;;;5327960;26;20316;-67
2024/04/23 03:08:05;;;;;;;8.20;6.70;;;4.30;56.20;;;;;;5318909;26;20329;-66
2024/04/23 03:10:31;;;;;;;7.60;6.90;;;4.40;56.10;;;;;;5330068;26;20271;-67
2024/04/23 03:12:59;;;;;;;7.23;6.27;;;4.40;55.70;;;;;;5322928;26;20257;-67
2024/04/23 03:15:25;;;;;;;7.47;6.70;;;4.40;56.00;;;;;;5324093;26;20234;-67
2024/04/23 03:17:53;;;;;;;8.57;6.97;;;4.40;56.30;;;;;;5318599;26;20729;-67
2024/04/23 03:20:18;;;;;;;7.50;6.77;;;4.30;56.00;;;;;;5319337;26;20306;-67
2024/04/23 03:22:47;;;;;;;8.30;7.00;;;4.30;56.70;;;;;;5325272;26;20325;-66
2024/04/23 03:25:12;;;;;;;7.90;7.13;;;4.20;57.00;;;;;;5329194;26;20325;-66
2024/04/23 03:27:40;;;;;;;8.83;8.03;;;4.30;56.40;;;;;;5333094;26;20252;-67
2024/04/23 03:30:06;;;;;;;7.93;7.23;;;4.30;56.40;;;;;;5331987;26;20300;-67
2024/04/23 03:32:34;;;;;;;8.00;7.27;;;3.90;56.80;;;;;;5318717;26;20354;-66
2024/04/23 03:35:00;;;;;;;7.63;6.93;;;4.00;57.90;;;;;;5329961;26;20794;-66
2024/04/23 03:37:28;;;;;;;7.80;7.10;;;4.10;57.60;;;;;;5310338;26;20233;-66
2024/04/23 03:39:57;;;;;;;8.00;7.10;;;4.20;57.00;;;;;;5309256;26;20291;-67
2024/04/23 03:42:25;;;;;;;7.67;6.97;;;4.10;57.00;;;;;;5327148;26;20292;-66
2024/04/23 03:44:53;;;;;;;8.43;7.17;;;4.00;57.40;;;;;;5319698;26;20305;-66
2024/04/23 03:47:21;;;;;;;7.53;6.90;;;4.20;57.20;;;;;;5334936;26;20345;-67
2024/04/23 03:49:47;;;;;;;8.03;7.23;;;4.20;57.30;;;;;;5329079;26;20735;-67
2024/04/23 03:52:16;;;;;;;7.70;7.00;;;4.10;57.30;;;;;;5330291;26;20258;-67
2024/04/23 03:54:43;;;;;;;8.00;7.30;;;4.00;57.60;;;;;;5305580;26;20259;-66
2024/04/23 03:57:11;;;;;;;8.47;7.67;;;4.10;58.30;;;;;;5331520;26;20415;-67
2024/04/23 03:59:37;;;;;;;8.27;7.47;;;4.10;57.50;;;;;;5316270;26;20257;-66
2024/04/23 04:07:30;;;;;;;8.63;7.40;;;4.20;57.50;;;;;;5315681;26;20341;-67
2024/04/23 04:09:58;;;;;;;8.30;7.50;;;4.10;57.60;;;;;;5327148;26;20297;-66
2024/04/23 04:12:26;;;;;;;8.77;7.73;;;4.10;57.80;;;;;;5304046;26;20249;-67
2024/04/23 04:14:52;;;;;;;8.77;7.77;;;4.20;57.70;;;;;;5319027;26;20270;-66
2024/04/23 04:17:20;;;;;;;8.53;7.23;;;4.10;57.90;;;;;;5307016;26;20303;-67
2024/04/23 04:19:45;;;;;;;8.03;7.20;;;4.20;57.50;;;;;;5330762;26;20241;-67
2024/04/23 04:22:14;;;;;;;8.47;7.50;;;4.20;57.50;;;;;;5330474;26;20233;-66
2024/04/23 04:24:39;;;;;;;8.30;7.50;;;4.10;57.40;;;;;;5312120;26;20352;-67
2024/04/23 04:27:07;;;;;;;8.93;8.03;;;4.20;57.80;;;;;;5317526;26;20666;-66
2024/04/23 04:29:33;;;;;;;9.27;7.50;;;4.10;58.30;;;;;;5286917;26;20373;-67
2024/04/23 04:32:01;;;;;;;9.27;7.87;;;4.20;57.80;;;;;;5325242;26;20768;-67
2024/04/23 04:34:27;;;;;;;7.93;7.17;;;4.20;57.80;;;;;;5320648;26;20251;-66
2024/04/23 04:36:55;;;;;;;8.90;8.00;;;4.30;57.80;;;;;;5300138;26;20281;-67
2024/04/23 04:39:21;;;;;;;8.30;7.50;;;4.20;57.40;;;;;;5327299;26;20275;-66
2024/04/23 04:41:49;;;;;;;9.03;7.97;;;4.30;57.10;;;;;;5326844;26;20246;-67
2024/04/23 04:44:15;;;;;;;8.97;7.77;;;4.20;57.60;;;;;;5327287;26;20702;-66
2024/04/23 04:46:43;;;;;;;9.20;7.70;;;4.20;57.70;;;;;;5318696;26;20354;-67
2024/04/23 04:49:08;;;;;;;9.20;7.37;;;4.20;57.20;;;;;;5330243;26;20723;-67
2024/04/23 04:51:37;;;;;;;8.77;7.80;;;4.20;56.90;;;;;;5301631;26;20254;-66
2024/04/23 04:54:02;;;;;;;8.63;7.73;;;4.20;57.30;;;;;;5301140;26;20355;-67
2024/04/23 04:56:30;;;;;;;8.70;7.50;;;4.30;57.30;;;;;;5293868;26;20248;-68
2024/04/23 04:58:56;;;;;;;8.83;7.93;;;4.30;57.50;;;;;;5319612;26;20238;-68
2024/04/23 05:01:24;;;;;;;10.23;8.80;;;4.30;57.10;;;;;;5323939;26;20348;-68
2024/04/23 05:03:50;;;;;;;8.90;8.00;;;4.30;57.40;;;;;;5316723;26;20360;-65
2024/04/23 05:06:18;;;;;;;8.83;8.03;;;4.30;57.00;;;;;;5323605;26;20572;-67
2024/04/23 05:08:44;;;;;;;8.93;8.03;;;4.30;57.20;;;;;;5324472;26;20353;-68
2024/04/23 05:11:12;;;;;;;8.57;7.67;;;4.30;57.40;;;;;;5318007;26;20258;-66
2024/04/23 05:13:37;;;;;;;8.20;7.30;;;4.30;57.40;;;;;;5331668;26;20783;-68
2024/04/23 05:16:06;;;;;;;8.73;7.70;;;4.30;57.20;;;;;;5321129;26;20348;-65
2024/04/23 05:18:32;;;;;;;8.53;7.73;;;4.30;57.30;;;;;;5313087;26;20285;-67
2024/04/23 05:21:00;;;;;;;8.83;8.00;;;4.30;57.40;;;;;;5319568;26;20258;-67
2024/04/23 05:23:25;;;;;;;8.10;7.30;;;4.30;57.70;;;;;;5331578;26;20234;-67
2024/04/23 05:25:54;;;;;;;8.70;7.80;;;4.20;57.60;;;;;;5315662;26;20299;-66
2024/04/23 05:28:19;;;;;;;9.03;8.13;;;4.20;57.70;;;;;;5320875;26;20238;-66
2024/04/23 05:33:31;;;;;;;8.73;7.80;;;4.20;58.00;;;;;;5308448;26;20275;-66
2024/04/23 05:36:00;;;;;;;8.83;8.00;;;4.10;58.90;;;;;;5307912;26;20238;-66
2024/04/23 05:38:28;;;;;;;8.40;7.60;;;4.20;58.50;;;;;;5330855;26;20362;-66
2024/04/23 05:40:56;;;;;;;9.13;8.23;;;4.30;58.10;;;;;;5331193;26;20232;-66
2024/04/23 05:43:25;;;;;;;8.73;7.80;;;4.20;58.70;;;;;;5325791;26;20358;-66
2024/04/23 05:45:53;;;;;;;8.93;8.03;;;4.20;59.00;;;;;;5323466;26;20800;-66
2024/04/23 05:48:19;;;;;;;9.60;8.60;;;4.20;58.90;;;;;;5307587;26;20314;-66
2024/04/23 05:50:47;;;;;;;9.57;8.57;;;4.20;58.90;;;;;;5324499;26;20699;-66
2024/04/23 05:53:12;;;;;;;8.67;7.77;;;4.10;59.00;;;;;;5316807;26;20303;-66
2024/04/23 05:55:41;;;;;;;8.80;8.00;;;4.20;58.80;;;;;;5327610;26;20853;-67
2024/04/23 05:58:07;;;;;;;10.27;8.30;;;4.20;58.80;;;;;;5322893;26;20237;-67
2024/04/23 06:00:35;;;;;;;9.63;8.30;;;4.20;59.50;;;;;;5271747;26;20294;-66
2024/04/23 06:03:01;;;;;;;9.47;8.03;;;4.20;59.40;;;;;;5294941;26;20729;-67
2024/04/23 06:05:29;;;;;;;8.50;7.70;;;4.20;59.70;;;;;;5305912;26;20244;-68
2024/04/23 06:07:54;;;;;;;10.07;9.07;;;4.10;59.90;;;;;;5329714;26;20709;-67
2024/04/23 06:10:23;;;;;;;9.40;8.50;;;4.00;60.10;;;;;;5300691;26;20352;-67
2024/04/23 06:12:48;;;;;;;10.67;9.20;;;4.00;60.10;;;;;;5279994;26;20356;-67
2024/04/23 06:15:16;;;;;;;9.27;8.37;;;4.00;60.10;;;;;;5303074;26;20251;-68
2024/04/23 06:17:42;;;;;;;9.27;8.27;;;4.10;59.90;;;;;;5318970;26;20302;-67
2024/04/23 06:20:11;;;;;;;9.03;8.23;;;4.10;60.00;;;;;;5317916;26;20351;-67
2024/04/23 06:22:38;;;;;;;8.60;7.80;;;4.20;60.10;;;;;;5326977;26;20583;-67
2024/04/23 06:25:07;;;;;;;8.80;8.00;;;4.30;59.90;;;;;;5293031;26;20294;-67
2024/04/23 06:27:32;;;;;;;9.33;8.33;;;4.20;60.10;;;;;;5311223;26;20687;-67
2024/04/23 06:30:01;;;;;;;9.13;8.23;;;4.30;60.80;;;;;;5309894;26;20358;-67
2024/04/23 06:32:26;;;;;;;9.83;8.63;;;4.20;60.70;;;;;;5304409;26;20360;-67
2024/04/23 06:34:54;;;;;;;9.57;7.77;;;4.20;60.60;;;;;;5286731;26;20258;-68
2024/04/23 06:37:23;;;;;;;8.93;8.03;;;4.20;60.30;;;;;;5323864;26;20359;-67
2024/04/23 06:39:48;;;;;;;9.47;8.57;;;4.20;60.20;;;;;;5307453;26;20855;-67
2024/04/23 06:42:16;;;;;;;9.37;8.47;;;4.20;60.80;;;;;;5317617;26;20260;-67
2024/04/23 06:44:45;;;;;;;9.20;7.97;;;4.20;60.60;;;;;;5301935;26;20356;-67
2024/04/23 06:47:10;;;;;;;9.30;8.43;;;4.20;60.10;;;;;;5319460;26;20234;-68
2024/04/23 06:49:40;;;;;;;9.33;8.23;;;4.20;60.30;;;;;;5303992;26;20618;-67
2024/04/23 06:52:08;;;;;;;9.40;8.40;;;4.20;60.80;;;;;;5308119;26;20294;-67
2024/04/23 06:54:37;;;;;;;10.00;7.93;;;4.20;60.70;;;;;;5323168;26;20257;-67
2024/04/23 06:57:02;;;;;;;8.63;7.83;;;4.20;60.40;;;;;;5320129;26;20339;-67
2024/04/23 06:59:31;;;;;;;8.80;8.00;;;4.20;60.40;;;;;;5306417;26;20854;-67
2024/04/23 07:01:56;;;;;;;9.10;8.30;;;4.20;59.60;;;;;;5316600;26;20747;-67
2024/04/23 07:04:24;;;;;;;9.03;8.13;;;4.20;60.50;;;;;;5308601;26;20245;-68
2024/04/23 07:06:53;;;;;;;8.53;7.77;;;4.20;60.40;;;;;;5305024;26;27334;-68
2024/04/23 07:09:21;;;;;;;8.80;7.90;;;4.20;60.10;;;;;;5292153;26;20299;-70
2024/04/23 07:11:47;;;;;;;8.63;7.57;;;4.20;60.20;;;;;;5279551;26;20288;-67
2024/04/23 07:14:15;;;;;;;8.60;7.40;;;4.20;60.30;;;;;;5304021;26;20247;-67
2024/04/23 07:16:45;;;;;;;11.77;8.70;;;4.20;59.80;;;;;;5295383;26;20464;-67
2024/04/23 07:19:13;;;;;;;8.77;7.97;;;4.20;60.20;;;;;;5289966;26;20298;-67
2024/04/23 07:21:38;;;;;;;9.03;8.13;;;4.20;60.90;;;;;;5310299;26;20254;-67
2024/04/23 07:24:07;;;;;;;8.67;7.87;;;4.30;60.50;;;;;;5291557;26;20313;-67
2024/04/23 07:26:32;;;;;;;8.93;8.07;;;4.30;60.50;;;;;;5307738;26;20367;-68
2024/04/23 07:29:00;;;;;;;9.47;8.00;;;4.20;61.00;;;;;;5285760;26;20656;-67
2024/04/23 07:31:26;;;;;;;8.93;8.13;;;4.20;61.70;;;;;;5289183;26;20334;-66
2024/04/23 07:33:54;;;;;;;8.13;7.43;;;4.30;61.10;;;;;;5293225;26;20259;-67
2024/04/23 07:36:23;;;;;;;8.70;7.83;;;4.40;61.50;;;;;;5306900;26;20309;-68
2024/04/23 07:38:48;;;;;;;9.47;8.57;;;4.60;61.30;;;;;;5330367;26;20250;-69
2024/04/23 07:41:17;;;;;;;8.40;7.67;;;4.50;61.10;;;;;;5292559;26;20594;-68
2024/04/23 07:43:42;;;;;;;9.97;8.97;;;4.60;60.50;;;;;;5282337;26;20734;-68
2024/04/23 07:46:11;;;;;;;9.67;8.00;;;4.60;60.00;;;;;;5292122;26;20250;-69
2024/04/23 07:48:36;;;;;;;8.90;8.00;;;4.70;60.10;;;;;;5289293;26;20303;-67
2024/04/23 07:51:05;;;;;;;9.47;7.77;;;4.80;60.80;;;;;;5302006;26;20340;-67
2024/04/23 07:53:31;;;;;;;8.50;7.60;;;4.90;60.60;;;;;;5315790;26;20246;-68
2024/04/23 07:56:00;;;;;;;8.37;7.57;;;4.80;60.00;;;;;;5325111;26;20237;-68
2024/04/23 07:58:26;;;;;;;8.80;8.00;;;4.70;60.50;;;;;;5318087;26;20371;-67
2024/04/23 08:00:55;;;;;;;9.13;8.33;;;4.90;59.70;;;;;;5330746;26;20233;-68
2024/04/23 08:03:20;;;;;;;8.70;7.93;;;4.50;59.90;;;;;;5312263;26;20278;-68
2024/04/23 08:05:49;;;;;;;8.77;7.87;;;4.70;60.20;;;;;;5297687;26;20663;-68
2024/04/23 08:08:14;;;;;;;8.80;8.00;;;4.70;59.70;;;;;;5312418;26;20863;-67
2024/04/23 08:10:42;;;;;;;8.43;7.57;;;4.70;60.40;;;;;;5314615;26;20253;-68
2024/04/23 08:13:09;;;;;;;8.83;7.93;;;4.70;60.40;;;;;;5325590;26;20376;-68
2024/04/23 08:15:38;;;;;;;8.27;7.57;;;4.90;60.30;;;;;;5325879;26;20286;-68
2024/04/23 08:18:03;;;;;;;8.40;7.70;;;4.80;60.10;;;;;;5311430;26;20285;-67
2024/04/23 08:20:31;;;;;;;8.60;7.70;;;4.70;60.50;;;;;;5331098;26;20238;-67
2024/04/23 08:22:57;;;;;;;7.83;7.13;;;4.80;61.50;;;;;;5308385;26;20294;-68
2024/04/23 08:25:25;;;;;;;8.53;7.73;;;4.90;59.90;;;;;;5292225;26;20340;-68
2024/04/23 08:27:51;;;;;;;9.07;7.50;;;4.90;59.50;;;;;;5324575;26;20254;-68
2024/04/23 08:30:21;;;;;;;8.90;8.10;;;4.80;59.20;;;;;;5289200;26;20242;-68
2024/04/23 08:32:46;;;;;;;9.53;8.63;;;4.80;59.90;;;;;;5302614;26;20296;-68
2024/04/23 08:35:15;;;;;;;9.30;8.40;;;4.90;60.00;;;;;;5294209;26;20266;-67
2024/04/23 08:37:40;;;;;;;9.37;8.53;;;4.80;60.40;;;;;;5293087;26;20304;-67
2024/04/23 08:40:08;;;;;;;9.37;8.07;;;4.70;59.70;;;;;;5298921;26;20373;-68
2024/04/23 08:42:37;;;;;;;8.80;7.90;;;4.80;59.40;;;;;;5302298;26;20295;-68
2024/04/23 08:45:02;;;;;;;9.00;8.10;;;4.80;60.00;;;;;;5280408;26;20246;-68
2024/04/23 08:47:31;;;;;;;9.40;8.50;;;4.80;59.70;;;;;;5283548;26;20355;-68
2024/04/23 08:49:56;;;;;;;8.70;7.80;;;4.70;60.60;;;;;;5272355;26;20301;-68
2024/04/23 08:52:25;;;;;;;7.93;7.23;;;4.60;59.90;;;;;;5244276;26;20251;-69
2024/04/23 08:54:50;;;;;;;8.27;7.53;;;4.70;59.40;;;;;;5277210;26;20367;-68
2024/04/23 08:57:19;;;;;;;8.00;7.20;;;4.60;60.30;;;;;;5243430;26;20393;-68
2024/04/23 08:59:44;;;;;;;8.03;7.30;;;4.60;60.30;;;;;;5272372;26;20281;-68
2024/04/23 09:02:12;;;;;;;8.80;8.00;;;4.70;60.40;;;;;;5279727;26;20317;-67
2024/04/23 09:04:38;;;;;;;9.00;8.10;;;4.70;60.40;;;;;;5284575;26;20650;-67
2024/04/23 09:07:06;;;;;;;9.23;8.43;;;4.80;60.80;;;;;;5274744;26;20363;-67
2024/04/23 09:09:32;;;;;;;8.70;7.90;;;4.70;60.50;;;;;;5272323;26;20290;-67
2024/04/23 09:12:02;;;;;;;8.50;7.70;;;4.80;60.00;;;;;;5273402;26;20259;-68
2024/04/23 09:14:28;;;;;;;8.10;7.33;;;5.00;60.10;;;;;;5270584;26;20250;-68
2024/04/23 09:16:56;;;;;;;8.43;7.47;;;5.20;59.20;;;;;;5253853;27;20293;-68
2024/04/23 09:22:06;;;;;;;7.60;6.80;;;5.00;59.00;;;;;;5270351;26;20255;-68
2024/04/23 09:24:31;;;;;;;17.70;7.70;;;5.00;59.00;;;;;;5265435;26;20291;-68
2024/04/23 09:26:59;;;;;;;8.43;7.50;;;5.10;59.10;;;;;;5279550;26;20246;-67
2024/04/23 09:29:25;;;;;;;7.50;6.80;;;5.00;59.80;;;;;;5270429;26;20251;-68
2024/04/23 09:31:53;;;;;;;7.87;7.17;;;5.20;59.60;;;;;;5270247;26;20355;-66
2024/04/23 09:34:19;;;;;;;8.10;7.30;;;5.10;59.10;;;;;;5279249;26;20249;-66
2024/04/23 09:36:47;;;;;;;8.07;7.27;;;5.10;59.60;;;;;;5271173;26;20318;-66
2024/04/23 09:39:13;;;;;;;8.33;7.53;;;5.00;59.60;;;;;;5270991;26;20708;-67
2024/04/23 09:41:41;;;;;;;9.00;7.30;;;5.00;59.50;;;;;;5290713;26;20247;-68
2024/04/23 09:44:06;;;;;;;8.03;7.30;;;5.00;59.50;;;;;;5313385;26;20243;-67
2024/04/23 09:46:35;;;;;;;7.93;7.27;;;4.90;59.60;;;;;;5289419;26;20369;-68
2024/04/23 09:49:01;;;;;;;8.17;7.37;;;4.80;59.30;;;;;;5305132;26;20323;-68
2024/04/23 09:51:29;;;;;;;8.50;7.70;;;4.80;60.10;;;;;;5277019;26;20283;-68
2024/04/23 09:53:55;;;;;;;7.67;7.07;;;4.80;58.90;;;;;;5305361;26;20377;-68
2024/04/23 09:56:23;;;;;;;7.90;7.20;;;4.80;59.40;;;;;;5306213;26;20263;-67
2024/04/23 09:58:49;;;;;;;8.20;7.40;;;4.90;59.50;;;;;;5295455;26;20812;-67
2024/04/23 10:01:17;;;;;;;7.90;7.10;;;4.80;59.20;;;;;;5306765;26;20356;-67
2024/04/23 10:03:43;;;;;;;8.90;8.10;;;4.90;59.10;;;;;;5307248;26;20710;-68
2024/04/23 10:06:11;;;;;;;8.30;7.53;;;4.90;59.20;;;;;;5307761;26;20352;-68
2024/04/23 10:08:37;;;;;;;8.93;8.00;;;4.90;59.30;;;;;;5289880;26;20328;-68
2024/04/23 10:11:06;;;;;;;8.30;7.53;;;5.00;59.10;;;;;;5298388;26;20493;-68
2024/04/23 10:13:31;;;;;;;8.70;7.83;;;4.90;58.60;;;;;;5314881;26;20291;-68
2024/04/23 10:16:00;;;;;;;8.30;7.50;;;5.00;59.10;;;;;;5298691;26;20251;-68
2024/04/23 10:18:26;;;;;;;7.53;6.83;;;5.10;59.10;;;;;;5308448;26;20395;-68
2024/04/23 10:20:54;;;;;;;8.60;7.83;;;5.00;58.70;;;;;;5274159;26;20286;-67
2024/04/23 10:23:20;;;;;;;8.37;7.57;;;4.90;58.90;;;;;;5305113;26;20371;-68
2024/04/23 10:25:48;;;;;;;8.33;7.63;;;4.90;58.90;;;;;;5287626;26;20251;-68
2024/04/23 10:28:14;;;;;;;8.47;7.70;;;4.90;59.20;;;;;;5311032;26;20304;-68
2024/04/23 10:30:42;;;;;;;9.10;8.30;;;4.90;58.90;;;;;;5290666;26;20244;-67
2024/04/23 10:33:08;;;;;;;8.67;7.97;;;5.00;59.00;;;;;;5302405;26;20257;-67
2024/04/23 10:35:36;;;;;;;8.87;8.07;;;5.00;58.00;;;;;;5299200;26;20961;-68
2024/04/23 10:38:02;;;;;;;8.60;7.80;;;5.10;57.40;;;;;;5313529;26;20255;-68
2024/04/23 10:40:30;;;;;;;8.23;7.43;;;5.00;57.30;;;;;;5302707;26;20301;-68
2024/04/23 10:42:56;;;;;;;8.87;8.07;;;5.10;57.90;;;;;;5300916;26;20263;-68
2024/04/23 10:45:24;;;;;;;8.50;7.80;;;5.20;57.30;;;;;;5301263;26;20340;-68
2024/04/23 10:47:50;;;;;;;8.17;7.47;;;5.20;57.20;;;;;;5300403;26;20298;-68
2024/04/23 10:50:18;;;;;;;8.27;7.53;;;5.20;57.10;;;;;;5294998;26;20250;-68
2024/04/23 10:52:44;;;;;;;8.53;7.73;;;5.10;57.30;;;;;;5329494;26;20749;-67
2024/04/23 10:55:15;;;;;;;8.57;7.87;;;5.20;57.90;;;;;;5288693;26;20259;-68
2024/04/23 10:57:40;;;;;;;9.37;8.47;;;5.10;57.60;;;;;;5314704;26;20234;-67
2024/04/23 11:00:09;;;;;;;8.50;7.80;;;5.00;57.70;;;;;;5313611;26;20638;-67
2024/04/23 11:02:34;;;;;;;8.93;8.23;;;5.00;57.80;;;;;;5314158;26;20254;-67
2024/04/23 11:05:02;;;;;;;9.47;8.10;;;5.00;57.50;;;;;;5302184;26;20243;-69
2024/04/23 11:07:28;;;;;;;8.60;7.90;;;5.10;57.90;;;;;;5305592;26;20363;-69
2024/04/23 11:09:57;;;;;;;8.57;7.77;;;5.00;58.00;;;;;;5280356;27;20249;-69
2024/04/23 11:12:23;;;;;;;8.73;7.97;;;5.00;58.00;;;;;;5304270;26;20253;-70
2024/04/23 11:14:51;;;;;;;9.17;8.27;;;5.00;58.50;;;;;;5303028;26;20288;-69
2024/04/23 11:17:17;;;;;;;8.30;7.57;;;5.00;58.00;;;;;;5317699;26;20254;-68
2024/04/23 11:19:46;;;;;;;8.70;7.90;;;5.00;58.30;;;;;;5305675;26;20347;-68
2024/04/23 11:22:13;;;;;;;8.10;7.40;;;5.00;58.00;;;;;;5329147;26;20689;-68
2024/04/23 11:24:41;;;;;;;8.33;7.53;;;5.00;57.90;;;;;;5293925;26;20660;-68
2024/04/23 11:27:07;;;;;;;9.00;8.20;;;5.00;57.60;;;;;;5296980;26;20370;-68
2024/04/23 11:29:35;;;;;;;8.30;7.60;;;4.90;57.50;;;;;;5321216;26;20258;-68
2024/04/23 11:32:00;;;;;;;9.33;7.50;;;5.00;57.60;;;;;;5299537;26;20310;-68
2024/04/23 11:34:29;;;;;;;8.90;8.10;;;5.00;57.50;;;;;;5318708;26;20245;-68
2024/04/23 11:36:54;;;;;;;9.00;8.10;;;5.00;57.60;;;;;;5296297;26;20403;-68
2024/04/23 11:39:23;;;;;;;8.53;7.63;;;5.00;57.30;;;;;;5295081;26;20257;-68
2024/04/23 11:41:49;;;;;;;9.53;8.70;;;5.00;57.80;;;;;;5310493;26;20340;-68
2024/04/23 11:44:18;;;;;;;8.60;7.80;;;4.90;58.10;;;;;;5311585;26;20243;-67
2024/04/23 11:46:44;;;;;;;9.20;7.43;;;5.00;57.80;;;;;;5311491;26;20242;-68
2024/04/23 11:49:12;;;;;;;8.27;7.13;;;5.00;57.30;;;;;;5298829;26;20246;-68
2024/04/23 11:51:38;;;;;;;8.90;8.00;;;5.00;56.80;;;;;;5299044;26;20644;-68
2024/04/23 11:54:06;;;;;;;8.07;7.30;;;4.90;57.20;;;;;;5331167;26;20271;-68
2024/04/23 11:56:32;;;;;;;8.90;8.00;;;5.10;56.80;;;;;;5320861;26;20273;-68
2024/04/23 11:59:01;;;;;;;9.30;8.50;;;5.10;57.00;;;;;;5318391;26;20239;-68
2024/04/23 12:01:27;;;;;;;8.40;7.70;;;5.00;57.80;;;;;;5289675;26;20242;-68
2024/04/23 12:03:55;;;;;;;8.53;7.20;;;5.00;57.50;;;;;;5292667;26;20289;-68
2024/04/23 12:06:21;;;;;;;9.37;8.33;;;5.00;57.90;;;;;;5277802;26;20366;-68
2024/04/23 12:08:49;;;;;;;8.70;7.87;;;5.00;57.90;;;;;;5315103;26;20242;-67
2024/04/23 12:11:15;;;;;;;9.13;8.33;;;5.00;57.80;;;;;;5294099;26;20566;-67
2024/04/23 12:13:43;;;;;;;9.53;8.73;;;4.80;57.90;;;;;;5317701;26;20249;-67
2024/04/23 12:16:11;;;;;;;9.20;8.40;;;4.90;57.90;;;;;;5310468;26;20336;-67
2024/04/23 12:18:39;;;;;;;9.10;8.27;;;4.90;57.80;;;;;;5305849;26;20857;-67
2024/04/23 12:21:05;;;;;;;10.20;8.73;;;4.90;57.90;;;;;;5297393;26;20691;-68
2024/04/23 12:23:33;;;;;;;8.80;8.00;;;4.90;57.60;;;;;;5318221;26;20400;-68
2024/04/23 12:25:59;;;;;;;9.77;8.83;;;5.00;57.80;;;;;;5318784;26;20250;-67
2024/04/23 12:28:27;;;;;;;8.87;8.07;;;4.90;58.10;;;;;;5317653;26;20703;-67
2024/04/23 12:30:53;;;;;;;10.17;9.17;;;4.90;57.70;;;;;;5293396;26;20281;-67
2024/04/23 12:33:21;;;;;;;10.33;9.43;;;4.90;57.90;;;;;;5279647;26;20246;-67
2024/04/23 12:35:47;;;;;;;9.20;8.27;;;4.90;58.50;;;;;;5303076;26;20290;-67
2024/04/23 12:38:15;;;;;;;9.80;8.80;;;5.00;58.10;;;;;;5302692;26;20238;-66
2024/04/23 12:40:40;;;;;;;9.53;8.53;;;4.80;58.90;;;;;;5296112;26;20347;-66
2024/04/23 12:43:08;;;;;;;9.17;8.27;;;4.90;58.60;;;;;;5315902;26;20246;-66
2024/04/23 12:45:37;;;;;;;9.80;8.90;;;4.90;58.90;;;;;;5316585;26;20297;-67
2024/04/23 12:48:03;;;;;;;9.83;8.67;;;4.80;58.90;;;;;;5312050;26;20262;-68
2024/04/23 12:50:31;;;;;;;10.33;9.43;;;5.00;59.00;;;;;;5307519;26;20666;-68
2024/04/23 12:52:57;;;;;;;9.93;8.93;;;4.90;58.10;;;;;;5319161;26;20240;-68
2024/04/23 12:55:27;;;;;;;10.13;9.13;;;5.10;58.40;;;;;;5308294;26;20343;-67
2024/04/23 12:57:52;;;;;;;9.73;8.30;;;5.10;57.10;;;;;;5279853;27;20238;-68
2024/04/23 13:00:21;;;;;;;10.23;9.27;;;5.20;57.30;;;;;;5324461;26;20287;-68
2024/04/23 13:02:47;;;;;;;10.07;9.00;;;5.20;57.50;;;;;;5328804;26;20240;-68
2024/04/23 13:05:15;;;;;;;9.70;8.70;;;5.20;58.30;;;;;;5328230;26;20272;-68
2024/04/23 13:07:40;;;;;;;9.03;8.23;;;5.10;58.20;;;;;;5312303;26;20235;-67